sensor_id;sensor_type;location;lat;lon;timestamp;pressure;altitude;pressure_sealevel;temperature;humidity
31403;BME280;18039;52.188;21.024;2022-08-19T00:01:56;74756.84;;;-141.45;74.74
31403;BME280;18039;52.188;21.024;2022-08-19T00:04:30;74760.88;;;-141.45;74.75
31403;BME280;18039;52.188;21.024;2022-08-19T00:07:00;74756.84;;;-141.45;74.85
31403;BME280;18039;52.188;21.024;2022-08-19T00:09:28;74785.19;;;-141.45;75.00
31403;BME280;18039;52.188;21.024;2022-08-19T00:11:56;74760.88;;;-141.45;75.08
31403;BME280;18039;52.188;21.024;2022-08-19T00:14:24;74758.84;;;-141.45;75.12
31403;BME280;18039;52.188;21.024;2022-08-19T00:16:54;74760.88;;;-141.45;75.20
31403;BME280;18039;52.188;21.024;2022-08-19T00:19:23;74766.97;;;-141.45;75.34
31403;BME280;18039;52.188;21.024;2022-08-19T00:21:51;74769.00;;;-141.45;75.39
31403;BME280;18039;52.188;21.024;2022-08-19T00:24:20;74773.03;;;-141.45;75.58
31403;BME280;18039;52.188;21.024;2022-08-19T00:26:49;74777.09;;;-141.45;75.64
31403;BME280;18039;52.188;21.024;2022-08-19T00:29:19;74793.31;;;-141.45;75.84
31403;BME280;18039;52.188;21.024;2022-08-19T00:31:48;74781.16;;;-141.45;76.07
31403;BME280;18039;52.188;21.024;2022-08-19T00:34:19;74785.19;;;-141.45;76.01
31403;BME280;18039;52.188;21.024;2022-08-19T00:36:47;74789.25;;;-141.45;76.02
31403;BME280;18039;52.188;21.024;2022-08-19T00:39:16;74793.31;;;-141.45;76.20
31403;BME280;18039;52.188;21.024;2022-08-19T00:41:44;74793.31;;;-141.45;76.38
31403;BME280;18039;52.188;21.024;2022-08-19T00:44:16;74795.31;;;-141.45;76.52
31403;BME280;18039;52.188;21.024;2022-08-19T00:46:48;74795.31;;;-141.45;76.49
31403;BME280;18039;52.188;21.024;2022-08-19T00:52:03;74795.31;;;-141.45;76.75
31403;BME280;18039;52.188;21.024;2022-08-19T00:54:31;74801.41;;;-141.45;76.98
31403;BME280;18039;52.188;21.024;2022-08-19T00:57:01;74797.34;;;-141.45;77.01
31403;BME280;18039;52.188;21.024;2022-08-19T00:59:33;74803.44;;;-141.45;77.12
31403;BME280;18039;52.188;21.024;2022-08-19T01:02:23;74809.50;;;-141.45;77.33
31403;BME280;18039;52.188;21.024;2022-08-19T01:04:51;74813.56;;;-141.45;77.31
31403;BME280;18039;52.188;21.024;2022-08-19T01:07:18;74821.66;;;-141.45;77.61
31403;BME280;18039;52.188;21.024;2022-08-19T01:09:46;74821.66;;;-141.45;77.64
31403;BME280;18039;52.188;21.024;2022-08-19T01:12:14;74825.72;;;-141.45;77.86
31403;BME280;18039;52.188;21.024;2022-08-19T01:14:42;74825.72;;;-141.45;77.91
31403;BME280;18039;52.188;21.024;2022-08-19T01:17:11;74833.81;;;-141.45;78.03
31403;BME280;18039;52.188;21.024;2022-08-19T01:19:40;74837.88;;;-141.45;78.17
31403;BME280;18039;52.188;21.024;2022-08-19T01:22:32;74848.00;;;-141.45;78.38
31403;BME280;18039;52.188;21.024;2022-08-19T01:25:01;74864.22;;;-141.45;78.49
31403;BME280;18039;52.188;21.024;2022-08-19T01:27:39;74850.03;;;-141.45;78.68
31403;BME280;18039;52.188;21.024;2022-08-19T01:30:13;74858.13;;;-141.45;78.87
31403;BME280;18039;52.188;21.024;2022-08-19T01:32:42;74856.09;;;-141.45;78.97
31403;BME280;18039;52.188;21.024;2022-08-19T01:35:11;74858.13;;;-141.45;79.20
31403;BME280;18039;52.188;21.024;2022-08-19T01:37:48;74858.13;;;-141.45;79.20
31403;BME280;18039;52.188;21.024;2022-08-19T01:40:17;74858.13;;;-141.45;79.46
31403;BME280;18039;52.188;21.024;2022-08-19T01:42:48;74862.19;;;-141.45;79.62
31403;BME280;18039;52.188;21.024;2022-08-19T01:45:17;74862.19;;;-141.45;79.60
31403;BME280;18039;52.188;21.024;2022-08-19T01:47:45;74864.22;;;-141.45;79.92
31403;BME280;18039;52.188;21.024;2022-08-19T01:50:32;74868.25;;;-141.45;80.04
31403;BME280;18039;52.188;21.024;2022-08-19T01:53:06;74870.28;;;-141.45;80.20
31403;BME280;18039;52.188;21.024;2022-08-19T01:55:36;74870.28;;;-141.45;80.38
31403;BME280;18039;52.188;21.024;2022-08-19T01:58:14;74874.34;;;-141.45;80.42
31403;BME280;18039;52.188;21.024;2022-08-19T02:00:44;74874.34;;;-141.45;80.65
31403;BME280;18039;52.188;21.024;2022-08-19T02:03:12;74878.41;;;-141.45;80.80
31403;BME280;18039;52.188;21.024;2022-08-19T02:05:40;74880.41;;;-141.45;80.89
31403;BME280;18039;52.188;21.024;2022-08-19T02:08:09;74880.41;;;-141.45;80.94
31403;BME280;18039;52.188;21.024;2022-08-19T02:10:41;74886.50;;;-141.45;81.08
31403;BME280;18039;52.188;21.024;2022-08-19T02:13:10;74884.47;;;-141.45;81.06
31403;BME280;18039;52.188;21.024;2022-08-19T02:15:38;74886.50;;;-141.45;81.03
31403;BME280;18039;52.188;21.024;2022-08-19T02:18:06;74882.44;;;-141.45;81.08
31403;BME280;18039;52.188;21.024;2022-08-19T02:20:36;74886.50;;;-141.45;81.11
31403;BME280;18039;52.188;21.024;2022-08-19T02:23:05;74882.44;;;-141.45;81.25
31403;BME280;18039;52.188;21.024;2022-08-19T02:25:46;74882.44;;;-141.45;81.27
31403;BME280;18039;52.188;21.024;2022-08-19T02:28:14;74890.56;;;-141.45;81.32
31403;BME280;18039;52.188;21.024;2022-08-19T02:30:46;74902.72;;;-141.45;81.37
31403;BME280;18039;52.188;21.024;2022-08-19T02:33:15;74894.59;;;-141.45;81.42
31403;BME280;18039;52.188;21.024;2022-08-19T02:35:44;74902.72;;;-141.45;81.37
31403;BME280;18039;52.188;21.024;2022-08-19T02:38:12;74906.75;;;-141.45;81.41
31403;BME280;18039;52.188;21.024;2022-08-19T02:41:01;74906.75;;;-141.45;81.53
31403;BME280;18039;52.188;21.024;2022-08-19T02:43:31;74906.75;;;-141.45;81.47
31403;BME280;18039;52.188;21.024;2022-08-19T02:46:00;74906.75;;;-141.45;81.61
31403;BME280;18039;52.188;21.024;2022-08-19T02:48:28;74918.91;;;-141.45;81.71
31403;BME280;18039;52.188;21.024;2022-08-19T02:50:57;74918.91;;;-141.45;81.81
31403;BME280;18039;52.188;21.024;2022-08-19T02:53:27;74922.97;;;-141.45;81.85
31403;BME280;18039;52.188;21.024;2022-08-19T02:55:55;74922.97;;;-141.45;81.94
31403;BME280;18039;52.188;21.024;2022-08-19T02:58:24;74920.94;;;-141.45;81.78
31403;BME280;18039;52.188;21.024;2022-08-19T03:00:54;74918.91;;;-141.45;82.00
31403;BME280;18039;52.188;21.024;2022-08-19T03:03:22;74927.03;;;-141.45;82.00
31403;BME280;18039;52.188;21.024;2022-08-19T03:05:49;74922.97;;;-141.45;81.96
31403;BME280;18039;52.188;21.024;2022-08-19T03:08:23;74935.13;;;-141.45;82.02
31403;BME280;18039;52.188;21.024;2022-08-19T03:10:52;74939.19;;;-141.45;82.19
31403;BME280;18039;52.188;21.024;2022-08-19T03:13:19;74935.13;;;-141.45;82.24
31403;BME280;18039;52.188;21.024;2022-08-19T03:15:48;74935.13;;;-141.45;82.23
31403;BME280;18039;52.188;21.024;2022-08-19T03:18:16;74939.19;;;-141.45;82.36
31403;BME280;18039;52.188;21.024;2022-08-19T03:20:45;74935.13;;;-141.45;82.40
31403;BME280;18039;52.188;21.024;2022-08-19T03:23:13;74935.13;;;-141.45;82.61
31403;BME280;18039;52.188;21.024;2022-08-19T03:25:44;74931.06;;;-141.45;82.61
31403;BME280;18039;52.188;21.024;2022-08-19T03:28:13;74933.09;;;-141.45;82.66
31403;BME280;18039;52.188;21.024;2022-08-19T03:30:42;74935.13;;;-141.45;82.68
31403;BME280;18039;52.188;21.024;2022-08-19T03:33:10;74937.16;;;-141.45;82.43
31403;BME280;18039;52.188;21.024;2022-08-19T03:36:02;74943.22;;;-141.45;82.53
31403;BME280;18039;52.188;21.024;2022-08-19T03:38:30;74943.22;;;-141.45;82.60
31403;BME280;18039;52.188;21.024;2022-08-19T03:40:56;74947.28;;;-141.45;82.64
31403;BME280;18039;52.188;21.024;2022-08-19T03:43:23;74943.22;;;-141.45;82.49
31403;BME280;18039;52.188;21.024;2022-08-19T03:46:03;74935.13;;;-141.45;82.62
31403;BME280;18039;52.188;21.024;2022-08-19T03:48:32;74939.19;;;-141.45;82.57
31403;BME280;18039;52.188;21.024;2022-08-19T03:51:00;74943.22;;;-141.45;82.60
31403;BME280;18039;52.188;21.024;2022-08-19T03:53:29;74939.19;;;-141.45;82.61
31403;BME280;18039;52.188;21.024;2022-08-19T03:55:57;74943.22;;;-141.45;82.45
31403;BME280;18039;52.188;21.024;2022-08-19T03:58:28;74943.22;;;-141.45;82.42
31403;BME280;18039;52.188;21.024;2022-08-19T04:00:56;74935.13;;;-141.45;82.23
31403;BME280;18039;52.188;21.024;2022-08-19T04:03:25;74935.13;;;-141.45;82.11
31403;BME280;18039;52.188;21.024;2022-08-19T04:05:53;74927.03;;;-141.45;82.03
31403;BME280;18039;52.188;21.024;2022-08-19T04:08:21;74918.91;;;-141.45;81.89
31403;BME280;18039;52.188;21.024;2022-08-19T04:10:49;74918.91;;;-141.45;81.64
31403;BME280;18039;52.188;21.024;2022-08-19T04:13:17;74914.88;;;-141.45;81.45
31403;BME280;18039;52.188;21.024;2022-08-19T04:15:45;74904.72;;;-141.45;81.23
31403;BME280;18039;52.188;21.024;2022-08-19T04:18:13;74898.66;;;-141.45;81.15
31403;BME280;18039;52.188;21.024;2022-08-19T04:20:44;74886.50;;;-141.45;81.05
31403;BME280;18039;52.188;21.024;2022-08-19T04:23:13;74884.47;;;-141.45;80.75
31403;BME280;18039;52.188;21.024;2022-08-19T04:25:43;74874.34;;;-141.45;80.37
31403;BME280;18039;52.188;21.024;2022-08-19T04:28:12;74866.25;;;-141.45;79.93
31403;BME280;18039;52.188;21.024;2022-08-19T04:30:48;74866.25;;;-141.45;79.55
31403;BME280;18039;52.188;21.024;2022-08-19T04:33:19;74858.13;;;-141.45;79.29
31403;BME280;18039;52.188;21.024;2022-08-19T04:35:54;74833.81;;;-141.45;79.04
31403;BME280;18039;52.188;21.024;2022-08-19T04:38:22;74825.72;;;-141.45;78.62
31403;BME280;18039;52.188;21.024;2022-08-19T04:40:51;74813.56;;;-141.45;78.05
31403;BME280;18039;52.188;21.024;2022-08-19T04:43:38;74797.34;;;-141.45;77.58
31403;BME280;18039;52.188;21.024;2022-08-19T04:46:10;74781.16;;;-141.45;76.84
31403;BME280;18039;52.188;21.024;2022-08-19T04:48:58;74764.94;;;-141.45;76.51
31403;BME280;18039;52.188;21.024;2022-08-19T04:51:36;74748.72;;;-141.45;76.15
31403;BME280;18039;52.188;21.024;2022-08-19T04:54:03;74740.63;;;-141.45;75.60
31403;BME280;18039;52.188;21.024;2022-08-19T04:56:30;74732.53;;;-141.45;75.38
31403;BME280;18039;52.188;21.024;2022-08-19T04:58:59;74732.53;;;-141.45;75.32
31403;BME280;18039;52.188;21.024;2022-08-19T05:01:32;74724.41;;;-141.45;75.31
31403;BME280;18039;52.188;21.024;2022-08-19T05:04:00;74724.41;;;-141.45;75.02
31403;BME280;18039;52.188;21.024;2022-08-19T05:06:28;74700.09;;;-141.45;74.98
31403;BME280;18039;52.188;21.024;2022-08-19T05:08:55;74692.00;;;-141.45;74.69
31403;BME280;18039;52.188;21.024;2022-08-19T05:11:27;74692.00;;;-141.45;74.40
31403;BME280;18039;52.188;21.024;2022-08-19T05:13:55;74687.94;;;-141.45;74.13
31403;BME280;18039;52.188;21.024;2022-08-19T05:16:25;74692.00;;;-141.45;74.34
31403;BME280;18039;52.188;21.024;2022-08-19T05:18:55;74702.13;;;-141.45;74.53
31403;BME280;18039;52.188;21.024;2022-08-19T05:21:42;74716.31;;;-141.45;74.39
31403;BME280;18039;52.188;21.024;2022-08-19T05:24:29;74726.44;;;-141.45;74.98
31403;BME280;18039;52.188;21.024;2022-08-19T05:26:59;74726.44;;;-141.45;75.28
31403;BME280;18039;52.188;21.024;2022-08-19T05:29:27;74736.56;;;-141.45;74.95
31403;BME280;18039;52.188;21.024;2022-08-19T05:32:05;74736.56;;;-141.45;74.83
31403;BME280;18039;52.188;21.024;2022-08-19T05:34:36;74744.69;;;-141.45;75.38
31403;BME280;18039;52.188;21.024;2022-08-19T05:37:05;74740.63;;;-141.45;75.38
31403;BME280;18039;52.188;21.024;2022-08-19T05:39:36;74730.50;;;-141.45;75.12
31403;BME280;18039;52.188;21.024;2022-08-19T05:42:07;74736.56;;;-141.45;75.12
31403;BME280;18039;52.188;21.024;2022-08-19T05:44:39;74740.63;;;-141.45;74.77
31403;BME280;18039;52.188;21.024;2022-08-19T05:47:11;74740.63;;;-141.45;75.00
31403;BME280;18039;52.188;21.024;2022-08-19T05:49:38;74732.53;;;-141.45;75.00
31403;BME280;18039;52.188;21.024;2022-08-19T05:52:09;74732.53;;;-141.45;75.04
31403;BME280;18039;52.188;21.024;2022-08-19T05:54:39;74732.53;;;-141.45;75.21
31403;BME280;18039;52.188;21.024;2022-08-19T05:57:09;74728.47;;;-141.45;75.01
31403;BME280;18039;52.188;21.024;2022-08-19T05:59:39;74724.41;;;-141.45;74.92
31403;BME280;18039;52.188;21.024;2022-08-19T06:02:06;74712.25;;;-141.45;74.97
31403;BME280;18039;52.188;21.024;2022-08-19T06:04:35;74708.22;;;-141.45;75.13
31403;BME280;18039;52.188;21.024;2022-08-19T06:07:02;74700.09;;;-141.45;74.96
31403;BME280;18039;52.188;21.024;2022-08-19T06:09:41;74683.91;;;-141.45;74.61
31403;BME280;18039;52.188;21.024;2022-08-19T06:12:29;74659.59;;;-141.45;74.47
31403;BME280;18039;52.188;21.024;2022-08-19T06:15:06;74643.38;;;-141.45;73.91
31403;BME280;18039;52.188;21.024;2022-08-19T06:17:34;74629.19;;;-141.45;73.15
31403;BME280;18039;52.188;21.024;2022-08-19T06:20:05;74629.19;;;-141.45;72.24
31403;BME280;18039;52.188;21.024;2022-08-19T06:22:45;74623.13;;;-141.45;72.52
31403;BME280;18039;52.188;21.024;2022-08-19T06:25:13;74627.16;;;-141.45;72.55
31403;BME280;18039;52.188;21.024;2022-08-19T06:27:41;74623.13;;;-141.45;72.91
31403;BME280;18039;52.188;21.024;2022-08-19T06:30:28;74623.13;;;-141.45;72.73
31403;BME280;18039;52.188;21.024;2022-08-19T06:32:56;74619.06;;;-141.45;72.53
31403;BME280;18039;52.188;21.024;2022-08-19T06:35:23;74619.06;;;-141.45;72.44
31403;BME280;18039;52.188;21.024;2022-08-19T06:37:51;74615.00;;;-141.45;72.18
31403;BME280;18039;52.188;21.024;2022-08-19T06:40:19;74602.84;;;-141.45;72.02
31403;BME280;18039;52.188;21.024;2022-08-19T06:42:46;74590.69;;;-141.45;71.65
31403;BME280;18039;52.188;21.024;2022-08-19T06:45:22;74578.53;;;-141.45;71.44
31403;BME280;18039;52.188;21.024;2022-08-19T06:47:52;74574.50;;;-141.45;71.53
31403;BME280;18039;52.188;21.024;2022-08-19T06:50:23;74574.50;;;-141.45;71.73
31403;BME280;18039;52.188;21.024;2022-08-19T06:52:51;74578.53;;;-141.45;71.79
31403;BME280;18039;52.188;21.024;2022-08-19T06:55:19;74566.41;;;-141.45;71.94
31403;BME280;18039;52.188;21.024;2022-08-19T06:57:46;74558.28;;;-141.45;71.80
31403;BME280;18039;52.188;21.024;2022-08-19T07:00:14;74538.03;;;-141.45;71.43
31403;BME280;18039;52.188;21.024;2022-08-19T07:02:42;74521.81;;;-141.45;70.86
31403;BME280;18039;52.188;21.024;2022-08-19T07:05:22;74499.53;;;-141.45;70.39
31403;BME280;18039;52.188;21.024;2022-08-19T07:07:49;74495.50;;;-141.45;69.47
31403;BME280;18039;52.188;21.024;2022-08-19T07:10:17;74497.50;;;-141.45;69.19
31403;BME280;18039;52.188;21.024;2022-08-19T07:12:45;74489.41;;;-141.45;69.26
31403;BME280;18039;52.188;21.024;2022-08-19T07:15:13;74479.28;;;-141.45;69.44
31403;BME280;18039;52.188;21.024;2022-08-19T07:17:40;74477.25;;;-141.45;69.27
31403;BME280;18039;52.188;21.024;2022-08-19T07:20:10;74469.16;;;-141.45;69.30
31403;BME280;18039;52.188;21.024;2022-08-19T07:22:38;74448.91;;;-141.45;68.92
31403;BME280;18039;52.188;21.024;2022-08-19T07:25:07;74424.59;;;-141.45;67.89
31403;BME280;18039;52.188;21.024;2022-08-19T07:27:35;74412.44;;;-141.45;67.23
31403;BME280;18039;52.188;21.024;2022-08-19T07:30:07;74394.19;;;-141.45;67.23
31403;BME280;18039;52.188;21.024;2022-08-19T07:32:39;74375.97;;;-141.45;66.75
31403;BME280;18039;52.188;21.024;2022-08-19T07:35:07;74363.81;;;-141.45;65.84
31403;BME280;18039;52.188;21.024;2022-08-19T07:37:35;74351.66;;;-141.45;65.93
31403;BME280;18039;52.188;21.024;2022-08-19T07:40:06;74335.44;;;-141.45;63.88
31403;BME280;18039;52.188;21.024;2022-08-19T07:42:33;74323.28;;;-141.45;63.46
31403;BME280;18039;52.188;21.024;2022-08-19T07:45:00;74323.28;;;-141.45;64.15
31403;BME280;18039;52.188;21.024;2022-08-19T07:47:28;74315.19;;;-141.45;63.76
31403;BME280;18039;52.188;21.024;2022-08-19T07:50:15;74307.09;;;-141.45;64.14
31403;BME280;18039;52.188;21.024;2022-08-19T07:52:43;74290.88;;;-141.45;63.73
31403;BME280;18039;52.188;21.024;2022-08-19T07:55:18;74280.75;;;-141.45;62.70
31403;BME280;18039;52.188;21.024;2022-08-19T07:58:05;74274.69;;;-141.45;62.58
31403;BME280;18039;52.188;21.024;2022-08-19T08:00:33;74266.56;;;-141.45;62.40
31403;BME280;18039;52.188;21.024;2022-08-19T08:03:02;74258.47;;;-141.45;62.46
31403;BME280;18039;52.188;21.024;2022-08-19T08:05:29;74250.38;;;-141.45;62.67
31403;BME280;18039;52.188;21.024;2022-08-19T08:08:14;74242.25;;;-141.45;62.34
31403;BME280;18039;52.188;21.024;2022-08-19T08:11:01;74234.16;;;-141.45;62.21
31403;BME280;18039;52.188;21.024;2022-08-19T08:13:33;74234.16;;;-141.45;61.46
31403;BME280;18039;52.188;21.024;2022-08-19T08:16:05;74226.06;;;-141.45;61.58
31403;BME280;18039;52.188;21.024;2022-08-19T08:18:39;74215.94;;;-141.45;61.52
31403;BME280;18039;52.188;21.024;2022-08-19T08:21:16;74217.94;;;-141.45;61.21
31403;BME280;18039;52.188;21.024;2022-08-19T08:23:43;74226.06;;;-141.45;61.36
31403;BME280;18039;52.188;21.024;2022-08-19T08:26:10;74217.94;;;-141.45;61.55
31403;BME280;18039;52.188;21.024;2022-08-19T08:28:38;74209.84;;;-141.45;61.39
31403;BME280;18039;52.188;21.024;2022-08-19T08:31:06;74197.69;;;-141.45;61.52
31403;BME280;18039;52.188;21.024;2022-08-19T08:33:35;74205.81;;;-141.45;61.41
31403;BME280;18039;52.188;21.024;2022-08-19T08:36:07;74195.66;;;-141.45;60.69
31403;BME280;18039;52.188;21.024;2022-08-19T08:38:35;74189.59;;;-141.45;60.99
31403;BME280;18039;52.188;21.024;2022-08-19T08:41:36;74189.59;;;-141.45;60.82
31403;BME280;18039;52.188;21.024;2022-08-19T08:44:14;74169.34;;;-141.45;60.57
31403;BME280;18039;52.188;21.024;2022-08-19T08:46:48;74153.13;;;-141.45;60.10
31403;BME280;18039;52.188;21.024;2022-08-19T08:49:26;74136.94;;;-141.45;59.85
31403;BME280;18039;52.188;21.024;2022-08-19T08:52:00;74132.88;;;-141.45;60.25
31403;BME280;18039;52.188;21.024;2022-08-19T08:54:41;74120.72;;;-141.45;59.29
31403;BME280;18039;52.188;21.024;2022-08-19T08:57:33;74130.84;;;-141.45;59.64
31403;BME280;18039;52.188;21.024;2022-08-19T09:00:13;74108.56;;;-141.45;59.15
31403;BME280;18039;52.188;21.024;2022-08-19T09:02:43;74100.47;;;-141.45;59.16
31403;BME280;18039;52.188;21.024;2022-08-19T09:05:16;74084.25;;;-141.45;59.31
31403;BME280;18039;52.188;21.024;2022-08-19T09:08:08;74084.25;;;-141.45;58.12
31403;BME280;18039;52.188;21.024;2022-08-19T09:10:52;74084.25;;;-141.45;56.85
31403;BME280;18039;52.188;21.024;2022-08-19T09:16:05;74047.81;;;-141.45;54.83
31403;BME280;18039;52.188;21.024;2022-08-19T09:18:52;74045.78;;;-141.45;55.19
31403;BME280;18039;52.188;21.024;2022-08-19T09:21:21;74039.69;;;-141.45;54.69
31403;BME280;18039;52.188;21.024;2022-08-19T09:23:56;74029.56;;;-141.45;54.85
31403;BME280;18039;52.188;21.024;2022-08-19T09:26:26;74019.44;;;-141.45;53.24
31403;BME280;18039;52.188;21.024;2022-08-19T09:29:13;74013.38;;;-141.45;52.77
31403;BME280;18039;52.188;21.024;2022-08-19T09:31:40;74013.38;;;-141.45;52.99
31403;BME280;18039;52.188;21.024;2022-08-19T09:34:07;74007.28;;;-141.45;52.83
31403;BME280;18039;52.188;21.024;2022-08-19T09:36:51;74003.25;;;-141.45;52.70
31403;BME280;18039;52.188;21.024;2022-08-19T09:39:21;74005.25;;;-141.45;53.02
31403;BME280;18039;52.188;21.024;2022-08-19T09:41:49;74003.25;;;-141.45;53.05
31403;BME280;18039;52.188;21.024;2022-08-19T09:44:17;74003.25;;;-141.45;53.36
31403;BME280;18039;52.188;21.024;2022-08-19T09:46:44;73995.13;;;-141.45;53.19
31403;BME280;18039;52.188;21.024;2022-08-19T09:49:16;73999.19;;;-141.45;52.76
31403;BME280;18039;52.188;21.024;2022-08-19T09:51:44;73995.13;;;-141.45;52.94
31403;BME280;18039;52.188;21.024;2022-08-19T09:54:18;73991.09;;;-141.45;52.79
31403;BME280;18039;52.188;21.024;2022-08-19T09:56:55;73982.97;;;-141.45;53.46
31403;BME280;18039;52.188;21.024;2022-08-19T09:59:25;73970.81;;;-141.45;53.74
31403;BME280;18039;52.188;21.024;2022-08-19T10:01:52;73954.63;;;-141.45;53.22
31403;BME280;18039;52.188;21.024;2022-08-19T10:04:20;73950.56;;;-141.45;52.71
31403;BME280;18039;52.188;21.024;2022-08-19T10:06:49;73938.41;;;-141.45;52.70
31403;BME280;18039;52.188;21.024;2022-08-19T10:09:19;73920.19;;;-141.45;51.85
31403;BME280;18039;52.188;21.024;2022-08-19T10:12:03;73901.97;;;-141.45;51.04
31403;BME280;18039;52.188;21.024;2022-08-19T10:14:32;73893.84;;;-141.45;51.08
31403;BME280;18039;52.188;21.024;2022-08-19T10:17:01;73889.81;;;-141.45;50.36
31403;BME280;18039;52.188;21.024;2022-08-19T10:19:44;73885.75;;;-141.45;50.23
31403;BME280;18039;52.188;21.024;2022-08-19T10:22:22;73885.75;;;-141.45;50.85
31403;BME280;18039;52.188;21.024;2022-08-19T10:24:52;73881.69;;;-141.45;49.99
31403;BME280;18039;52.188;21.024;2022-08-19T10:27:19;73873.59;;;-141.45;48.87
31403;BME280;18039;52.188;21.024;2022-08-19T10:29:46;73869.56;;;-141.45;49.24
31403;BME280;18039;52.188;21.024;2022-08-19T10:32:14;73853.34;;;-141.45;48.95
31403;BME280;18039;52.188;21.024;2022-08-19T10:34:42;73853.34;;;-141.45;49.38
31403;BME280;18039;52.188;21.024;2022-08-19T10:37:16;73835.13;;;-141.45;48.80
31403;BME280;18039;52.188;21.024;2022-08-19T10:39:54;73843.22;;;-141.45;48.32
31403;BME280;18039;52.188;21.024;2022-08-19T10:42:22;73845.25;;;-141.45;47.47
31403;BME280;18039;52.188;21.024;2022-08-19T10:44:49;73841.19;;;-141.45;47.35
31403;BME280;18039;52.188;21.024;2022-08-19T10:47:18;73841.19;;;-141.45;47.88
31403;BME280;18039;52.188;21.024;2022-08-19T10:49:53;73829.03;;;-141.45;47.92
31403;BME280;18039;52.188;21.024;2022-08-19T10:52:41;73829.03;;;-141.45;48.33
31403;BME280;18039;52.188;21.024;2022-08-19T10:55:19;73829.03;;;-141.45;48.46
31403;BME280;18039;52.188;21.024;2022-08-19T10:58:17;73822.97;;;-141.45;47.57
31403;BME280;18039;52.188;21.024;2022-08-19T11:00:57;73812.84;;;-141.45;47.63
31403;BME280;18039;52.188;21.024;2022-08-19T11:03:25;73798.66;;;-141.45;47.45
31403;BME280;18039;52.188;21.024;2022-08-19T11:06:02;73792.59;;;-141.45;46.70
31403;BME280;18039;52.188;21.024;2022-08-19T11:08:30;73772.31;;;-141.45;46.66
31403;BME280;18039;52.188;21.024;2022-08-19T11:10:59;73768.28;;;-141.45;47.12
31403;BME280;18039;52.188;21.024;2022-08-19T11:13:28;73764.22;;;-141.45;47.87
31403;BME280;18039;52.188;21.024;2022-08-19T11:16:18;73748.03;;;-141.45;47.83
31403;BME280;18039;52.188;21.024;2022-08-19T11:18:49;73748.03;;;-141.45;48.02
31403;BME280;18039;52.188;21.024;2022-08-19T11:21:24;73743.97;;;-141.45;47.37
31403;BME280;18039;52.188;21.024;2022-08-19T11:23:55;73731.81;;;-141.45;46.94
31403;BME280;18039;52.188;21.024;2022-08-19T11:26:24;73760.19;;;-141.45;46.83
31403;BME280;18039;52.188;21.024;2022-08-19T11:28:52;73743.97;;;-141.45;47.44
31403;BME280;18039;52.188;21.024;2022-08-19T11:31:23;73733.84;;;-141.45;46.80
31403;BME280;18039;52.188;21.024;2022-08-19T11:34:02;73713.59;;;-141.45;46.63
31403;BME280;18039;52.188;21.024;2022-08-19T11:36:30;73715.63;;;-141.45;46.29
31403;BME280;18039;52.188;21.024;2022-08-19T11:38:59;73703.47;;;-141.45;46.40
31403;BME280;18039;52.188;21.024;2022-08-19T11:41:27;73703.47;;;-141.45;46.60
31403;BME280;18039;52.188;21.024;2022-08-19T11:43:54;73695.38;;;-141.45;45.74
31403;BME280;18039;52.188;21.024;2022-08-19T11:46:23;73671.06;;;-141.45;44.64
31403;BME280;18039;52.188;21.024;2022-08-19T11:48:51;73662.97;;;-141.45;44.46
31403;BME280;18039;52.188;21.024;2022-08-19T11:51:21;73664.97;;;-141.45;44.63
31403;BME280;18039;52.188;21.024;2022-08-19T11:53:49;73654.84;;;-141.45;45.72
31403;BME280;18039;52.188;21.024;2022-08-19T11:56:18;73650.81;;;-141.45;45.68
31403;BME280;18039;52.188;21.024;2022-08-19T11:58:45;73646.75;;;-141.45;45.70
31403;BME280;18039;52.188;21.024;2022-08-19T12:01:16;73642.72;;;-141.45;45.44
31403;BME280;18039;52.188;21.024;2022-08-19T12:03:45;73640.69;;;-141.45;45.58
31403;BME280;18039;52.188;21.024;2022-08-19T12:06:14;73638.66;;;-141.45;45.59
31403;BME280;18039;52.188;21.024;2022-08-19T12:08:43;73622.44;;;-141.45;45.89
31403;BME280;18039;52.188;21.024;2022-08-19T12:11:14;73618.41;;;-141.45;45.88
31403;BME280;18039;52.188;21.024;2022-08-19T12:13:42;73608.28;;;-141.45;46.40
31403;BME280;18039;52.188;21.024;2022-08-19T12:16:21;73606.25;;;-141.45;45.42
31403;BME280;18039;52.188;21.024;2022-08-19T12:18:50;73586.00;;;-141.45;45.65
31403;BME280;18039;52.188;21.024;2022-08-19T12:21:20;73581.94;;;-141.45;45.27
31403;BME280;18039;52.188;21.024;2022-08-19T12:23:49;73573.84;;;-141.45;45.71
31403;BME280;18039;52.188;21.024;2022-08-19T12:26:22;73573.84;;;-141.45;44.71
31403;BME280;18039;52.188;21.024;2022-08-19T12:28:49;73565.75;;;-141.45;44.87
31403;BME280;18039;52.188;21.024;2022-08-19T12:31:17;73553.59;;;-141.45;44.28
31403;BME280;18039;52.188;21.024;2022-08-19T12:33:47;73549.53;;;-141.45;44.26
31403;BME280;18039;52.188;21.024;2022-08-19T12:36:15;73553.59;;;-141.45;44.38
31403;BME280;18039;52.188;21.024;2022-08-19T12:38:42;73549.53;;;-141.45;44.74
31403;BME280;18039;52.188;21.024;2022-08-19T12:41:13;73561.69;;;-141.45;44.72
31403;BME280;18039;52.188;21.024;2022-08-19T12:43:40;73543.47;;;-141.45;44.19
31403;BME280;18039;52.188;21.024;2022-08-19T12:46:09;73533.34;;;-141.45;43.71
31403;BME280;18039;52.188;21.024;2022-08-19T12:48:38;73533.34;;;-141.45;44.20
31403;BME280;18039;52.188;21.024;2022-08-19T12:51:10;73525.25;;;-141.45;44.23
31403;BME280;18039;52.188;21.024;2022-08-19T12:53:38;73509.03;;;-141.45;43.92
31403;BME280;18039;52.188;21.024;2022-08-19T12:56:06;73521.19;;;-141.45;43.86
31403;BME280;18039;52.188;21.024;2022-08-19T12:58:39;73521.19;;;-141.45;43.46